N421SV KJAX-KDAL
Flight info
| Callsign | N421SV |
|---|---|
| Flight time | N/A |
| Altitude | 38000 |
| Route | BRSTL1 ALLMA MGM MEI/N0430F400 PUDJE REDDN4 |
| Aircraft | LJ35/M-SBDFGRWY/HB2 |
Departure
| Time | 2026-05-07 18:46 |
|---|---|
| Airport | Jacksonville International Airport (KJAX) |
Arrival
| Time | N/A |
|---|---|
| Airport | Dallas Love Field (KDAL) |
| Time | Latitude | Longitude | Altitude | Speed | Heading |
|---|---|---|---|---|---|
| 2026-05-07 18:19 | 30.49666 | -81.67803 | 28 ft | 0 kts | 192° |
| 2026-05-07 18:40 | 30.49649 | -81.67825 | 28 ft | 7 kts | 271° |
| 2026-05-07 18:40 | 30.49662 | -81.67909 | 29 ft | 13 kts | 298° |
| 2026-05-07 18:41 | 30.49752 | -81.67904 | 29 ft | 16 kts | 9° |
| 2026-05-07 18:41 | 30.49870 | -81.67912 | 30 ft | 18 kts | 342° |
| 2026-05-07 18:41 | 30.49992 | -81.67946 | 30 ft | 17 kts | 24° |
| 2026-05-07 18:41 | 30.50039 | -81.67821 | 30 ft | 18 kts | 69° |
| 2026-05-07 18:42 | 30.50079 | -81.67693 | 30 ft | 17 kts | 70° |
| 2026-05-07 18:42 | 30.50121 | -81.67557 | 29 ft | 17 kts | 70° |
| 2026-05-07 18:42 | 30.50160 | -81.67427 | 29 ft | 17 kts | 72° |
| 2026-05-07 18:42 | 30.50201 | -81.67291 | 29 ft | 19 kts | 70° |
| 2026-05-07 18:43 | 30.50247 | -81.67149 | 29 ft | 19 kts | 69° |
| 2026-05-07 18:43 | 30.50287 | -81.67013 | 30 ft | 18 kts | 69° |
| 2026-05-07 18:43 | 30.50369 | -81.66948 | 32 ft | 18 kts | 339° |
| 2026-05-07 18:43 | 30.50447 | -81.66979 | 29 ft | 0 kts | 340° |
| 2026-05-07 18:44 | 30.50460 | -81.66985 | 29 ft | 6 kts | 341° |
| 2026-05-07 18:44 | 30.50522 | -81.67020 | 29 ft | 14 kts | 292° |
| 2026-05-07 18:45 | 30.50517 | -81.67074 | 29 ft | 0 kts | 252° |
| 2026-05-07 18:45 | 30.50508 | -81.67102 | 29 ft | 21 kts | 250° |
| 2026-05-07 18:45 | 30.50395 | -81.67469 | 29 ft | 74 kts | 250° |
| 2026-05-07 18:45 | 30.50171 | -81.68204 | 30 ft | 117 kts | 251° |
| 2026-05-07 18:46 | 30.49865 | -81.69216 | 156 ft | 140 kts | 252° |
| 2026-05-07 18:46 | 30.49544 | -81.70252 | 831 ft | 132 kts | 249° |
| 2026-05-07 18:46 | 30.49206 | -81.71313 | 1249 ft | 146 kts | 246° |
| 2026-05-07 18:46 | 30.48882 | -81.72410 | 1634 ft | 140 kts | 249° |
| 2026-05-07 18:47 | 30.48577 | -81.73497 | 1895 ft | 143 kts | 249° |
| 2026-05-07 18:47 | 30.48282 | -81.74611 | 2123 ft | 145 kts | 250° |
| 2026-05-07 18:47 | 30.48006 | -81.75756 | 2320 ft | 151 kts | 261° |
| 2026-05-07 18:47 | 30.48347 | -81.76930 | 2471 ft | 167 kts | 304° |
| 2026-05-07 18:48 | 30.49420 | -81.77573 | 2639 ft | 185 kts | 339° |
| 2026-05-07 18:48 | 30.50263 | -81.77751 | 2800 ft | 194 kts | 341° |
| 2026-05-07 18:48 | 30.52115 | -81.78100 | 3192 ft | 211 kts | 342° |
| 2026-05-07 18:48 | 30.53101 | -81.78294 | 3381 ft | 223 kts | 342° |
| 2026-05-07 18:49 | 30.54699 | -81.78626 | 3640 ft | 241 kts | 341° |
| 2026-05-07 18:49 | 30.56390 | -81.78988 | 3980 ft | 253 kts | 342° |
| 2026-05-07 18:49 | 30.58704 | -81.79619 | 4385 ft | 261 kts | 334° |
| 2026-05-07 18:49 | 30.60445 | -81.80340 | 4691 ft | 270 kts | 333° |
| 2026-05-07 18:50 | 30.61662 | -81.80789 | 4926 ft | 274 kts | 336° |
| 2026-05-07 18:50 | 30.63503 | -81.81363 | 5577 ft | 274 kts | 336° |
| 2026-05-07 18:50 | 30.65327 | -81.81943 | 6021 ft | 274 kts | 335° |
| 2026-05-07 18:50 | 30.67159 | -81.82562 | 6493 ft | 276 kts | 334° |
| 2026-05-07 18:51 | 30.69017 | -81.83176 | 7032 ft | 277 kts | 335° |
| 2026-05-07 18:51 | 30.70869 | -81.83792 | 7564 ft | 277 kts | 334° |
| 2026-05-07 18:51 | 30.72726 | -81.84415 | 8059 ft | 278 kts | 334° |
| 2026-05-07 18:51 | 30.74593 | -81.85035 | 8598 ft | 280 kts | 334° |
| 2026-05-07 18:52 | 30.76470 | -81.85652 | 9146 ft | 280 kts | 334° |
| 2026-05-07 18:52 | 30.78167 | -81.86215 | 9649 ft | 282 kts | 334° |
| 2026-05-07 18:52 | 30.80056 | -81.86844 | 10088 ft | 283 kts | 334° |
| 2026-05-07 18:52 | 30.81952 | -81.87475 | 10493 ft | 284 kts | 334° |
| 2026-05-07 18:53 | 30.83867 | -81.88113 | 10890 ft | 287 kts | 334° |
| 2026-05-07 18:53 | 30.85799 | -81.88753 | 11535 ft | 288 kts | 333° |
| 2026-05-07 18:53 | 30.87628 | -81.89602 | 12178 ft | 279 kts | 320° |
| 2026-05-07 18:53 | 30.89273 | -81.90787 | 12702 ft | 284 kts | 318° |
| 2026-05-07 18:54 | 30.90977 | -81.91973 | 13345 ft | 286 kts | 319° |
| 2026-05-07 18:54 | 30.92697 | -81.93169 | 13917 ft | 289 kts | 319° |
| 2026-05-07 18:54 | 30.94429 | -81.94390 | 14445 ft | 291 kts | 318° |
| 2026-05-07 18:54 | 30.96166 | -81.95616 | 14987 ft | 293 kts | 318° |
| 2026-05-07 18:55 | 30.97794 | -81.96763 | 15464 ft | 295 kts | 317° |
| 2026-05-07 18:55 | 30.99359 | -81.98133 | 15995 ft | 290 kts | 309° |
| 2026-05-07 18:55 | 31.00916 | -81.99660 | 16462 ft | 294 kts | 309° |
| 2026-05-07 18:55 | 31.02511 | -82.01189 | 16980 ft | 297 kts | 309° |
| 2026-05-07 18:56 | 31.04088 | -82.02702 | 17494 ft | 298 kts | 309° |
| 2026-05-07 18:56 | 31.05712 | -82.04271 | 18003 ft | 300 kts | 308° |
| 2026-05-07 18:56 | 31.07306 | -82.05814 | 18469 ft | 302 kts | 308° |
| 2026-05-07 18:56 | 31.08930 | -82.07381 | 18914 ft | 304 kts | 308° |
| 2026-05-07 18:57 | 31.10559 | -82.08955 | 19355 ft | 305 kts | 309° |
| 2026-05-07 18:57 | 31.12198 | -82.10539 | 19780 ft | 307 kts | 309° |
| 2026-05-07 18:57 | 31.13844 | -82.12131 | 20297 ft | 307 kts | 309° |
| 2026-05-07 18:57 | 31.15494 | -82.13729 | 20786 ft | 309 kts | 309° |
| 2026-05-07 18:58 | 31.17153 | -82.15336 | 21265 ft | 311 kts | 309° |
| 2026-05-07 18:58 | 31.18826 | -82.16958 | 21738 ft | 314 kts | 309° |
| 2026-05-07 18:58 | 31.20522 | -82.18599 | 22372 ft | 317 kts | 309° |
| 2026-05-07 18:58 | 31.22126 | -82.20152 | 23253 ft | 318 kts | 309° |
| 2026-05-07 18:59 | 31.23840 | -82.21820 | 23990 ft | 323 kts | 310° |
| 2026-05-07 18:59 | 31.25573 | -82.23504 | 24662 ft | 327 kts | 310° |
| 2026-05-07 18:59 | 31.27308 | -82.25187 | 25316 ft | 331 kts | 310° |
| 2026-05-07 18:59 | 31.29113 | -82.26939 | 25978 ft | 335 kts | 310° |
| 2026-05-07 19:00 | 31.30917 | -82.28694 | 26635 ft | 339 kts | 310° |
| 2026-05-07 19:00 | 31.32742 | -82.30468 | 27267 ft | 343 kts | 310° |
| 2026-05-07 19:00 | 31.34565 | -82.32243 | 27873 ft | 347 kts | 310° |
| 2026-05-07 19:00 | 31.36433 | -82.34062 | 28479 ft | 352 kts | 310° |
| 2026-05-07 19:01 | 31.38325 | -82.35904 | 29078 ft | 355 kts | 310° |
| 2026-05-07 19:01 | 31.40239 | -82.37769 | 29656 ft | 359 kts | 310° |
| 2026-05-07 19:01 | 31.42171 | -82.39654 | 30184 ft | 363 kts | 310° |
| 2026-05-07 19:01 | 31.44125 | -82.41559 | 30657 ft | 366 kts | 310° |
| 2026-05-07 19:02 | 31.46092 | -82.43479 | 31136 ft | 369 kts | 310° |
| 2026-05-07 19:02 | 31.48072 | -82.45413 | 31609 ft | 372 kts | 310° |
| 2026-05-07 19:02 | 31.50069 | -82.47366 | 32060 ft | 375 kts | 310° |
| 2026-05-07 19:02 | 31.51922 | -82.49472 | 32586 ft | 368 kts | 301° |
| 2026-05-07 19:03 | 31.53351 | -82.51947 | 32986 ft | 366 kts | 291° |
| 2026-05-07 19:03 | 31.54328 | -82.54692 | 33379 ft | 364 kts | 281° |
| 2026-05-07 19:03 | 31.54924 | -82.57582 | 33678 ft | 368 kts | 277° |
| 2026-05-07 19:03 | 31.55501 | -82.60515 | 34037 ft | 370 kts | 278° |
| 2026-05-07 19:04 | 31.56084 | -82.63465 | 34373 ft | 371 kts | 277° |
| 2026-05-07 19:04 | 31.56658 | -82.66421 | 34693 ft | 373 kts | 277° |
| 2026-05-07 19:04 | 31.57226 | -82.69354 | 35004 ft | 374 kts | 277° |
| 2026-05-07 19:04 | 31.57806 | -82.72333 | 35330 ft | 375 kts | 277° |
| 2026-05-07 19:05 | 31.58388 | -82.75325 | 35622 ft | 376 kts | 277° |
| 2026-05-07 19:05 | 31.58970 | -82.78320 | 35899 ft | 377 kts | 277° |
| 2026-05-07 19:05 | 31.59553 | -82.81330 | 36193 ft | 378 kts | 277° |
| 2026-05-07 19:05 | 31.60134 | -82.84332 | 36489 ft | 378 kts | 277° |
| 2026-05-07 19:06 | 31.60715 | -82.87336 | 36787 ft | 378 kts | 277° |
| 2026-05-07 19:06 | 31.61870 | -82.93320 | 37453 ft | 375 kts | 276° |
| 2026-05-07 19:06 | 31.62444 | -82.96296 | 37807 ft | 373 kts | 276° |
| 2026-05-07 19:07 | 31.63005 | -82.99212 | 37979 ft | 371 kts | 276° |
| 2026-05-07 19:07 | 31.63570 | -83.02158 | 37980 ft | 369 kts | 276° |
| 2026-05-07 19:07 | 31.64685 | -83.07962 | 37983 ft | 365 kts | 276° |
| 2026-05-07 19:08 | 31.65790 | -83.13750 | 37979 ft | 362 kts | 276° |
| 2026-05-07 19:08 | 31.66887 | -83.19506 | 37984 ft | 361 kts | 276° |
| 2026-05-07 19:09 | 31.67981 | -83.25264 | 37981 ft | 361 kts | 276° |
| 2026-05-07 19:09 | 31.69074 | -83.31025 | 37983 ft | 362 kts | 276° |
| 2026-05-07 19:10 | 31.70159 | -83.36773 | 37984 ft | 362 kts | 275° |
| 2026-05-07 19:10 | 31.71250 | -83.42554 | 37985 ft | 362 kts | 275° |
| 2026-05-07 19:11 | 31.72329 | -83.48291 | 37984 ft | 362 kts | 275° |
| 2026-05-07 19:11 | 31.73410 | -83.54050 | 37987 ft | 360 kts | 275° |
| 2026-05-07 19:12 | 31.74486 | -83.59802 | 37981 ft | 359 kts | 275° |
| 2026-05-07 19:12 | 31.75557 | -83.65538 | 37985 ft | 359 kts | 275° |
| 2026-05-07 19:13 | 31.76620 | -83.71259 | 37977 ft | 362 kts | 275° |
| 2026-05-07 19:13 | 31.77692 | -83.77027 | 37971 ft | 361 kts | 275° |
| 2026-05-07 19:14 | 31.78756 | -83.82775 | 37969 ft | 359 kts | 275° |
| 2026-05-07 19:14 | 31.79817 | -83.88517 | 37979 ft | 358 kts | 275° |
| 2026-05-07 19:15 | 31.80870 | -83.94235 | 37979 ft | 357 kts | 275° |
| 2026-05-07 19:15 | 31.81920 | -83.99950 | 37976 ft | 357 kts | 275° |
| 2026-05-07 19:16 | 31.82958 | -84.05618 | 37967 ft | 356 kts | 275° |
| 2026-05-07 19:16 | 31.83999 | -84.11313 | 37960 ft | 356 kts | 275° |
| 2026-05-07 19:17 | 31.85035 | -84.17002 | 37958 ft | 356 kts | 275° |
| 2026-05-07 19:17 | 31.86070 | -84.22691 | 37948 ft | 356 kts | 275° |
| 2026-05-07 19:18 | 31.87102 | -84.28388 | 37956 ft | 355 kts | 275° |
| 2026-05-07 19:18 | 31.88130 | -84.34075 | 37954 ft | 355 kts | 275° |
| 2026-05-07 19:19 | 31.89157 | -84.39768 | 37955 ft | 355 kts | 275° |
| 2026-05-07 19:19 | 31.90178 | -84.45449 | 37955 ft | 355 kts | 275° |
| 2026-05-07 19:20 | 31.91189 | -84.51084 | 37957 ft | 354 kts | 275° |
| 2026-05-07 19:20 | 31.92203 | -84.56759 | 37961 ft | 354 kts | 275° |
| 2026-05-07 19:21 | 31.93215 | -84.62431 | 37957 ft | 353 kts | 274° |
| 2026-05-07 19:21 | 31.94220 | -84.68088 | 37954 ft | 353 kts | 274° |
| 2026-05-07 19:22 | 31.95225 | -84.73744 | 37954 ft | 353 kts | 274° |
| 2026-05-07 19:22 | 31.96224 | -84.79394 | 37956 ft | 352 kts | 274° |
| 2026-05-07 19:23 | 31.97216 | -84.85017 | 37957 ft | 352 kts | 274° |
| 2026-05-07 19:23 | 31.98208 | -84.90653 | 37964 ft | 351 kts | 274° |
| 2026-05-07 19:24 | 31.99196 | -84.96289 | 37962 ft | 351 kts | 274° |
| 2026-05-07 19:24 | 32.00182 | -85.01919 | 37968 ft | 350 kts | 274° |
| 2026-05-07 19:25 | 32.01162 | -85.07542 | 37969 ft | 350 kts | 274° |
| 2026-05-07 19:25 | 32.02141 | -85.13160 | 37968 ft | 350 kts | 274° |
| 2026-05-07 19:26 | 32.03109 | -85.18735 | 37967 ft | 349 kts | 274° |
| 2026-05-07 19:26 | 32.04078 | -85.24339 | 37966 ft | 349 kts | 274° |
| 2026-05-07 19:27 | 32.05046 | -85.29947 | 37960 ft | 349 kts | 274° |
| 2026-05-07 19:27 | 32.06010 | -85.35549 | 37962 ft | 348 kts | 274° |
| 2026-05-07 19:28 | 32.06969 | -85.41133 | 37958 ft | 348 kts | 273° |
| 2026-05-07 19:28 | 32.07926 | -85.46726 | 37960 ft | 347 kts | 273° |
| 2026-05-07 19:29 | 32.08879 | -85.52311 | 37961 ft | 347 kts | 273° |
| 2026-05-07 19:29 | 32.09824 | -85.57861 | 37960 ft | 346 kts | 273° |
| 2026-05-07 19:30 | 32.10770 | -85.63435 | 37961 ft | 346 kts | 273° |
| 2026-05-07 19:30 | 32.11713 | -85.69000 | 37959 ft | 346 kts | 273° |
| 2026-05-07 19:31 | 32.12652 | -85.74565 | 37961 ft | 345 kts | 273° |
| 2026-05-07 19:31 | 32.13587 | -85.80117 | 37967 ft | 345 kts | 273° |
| 2026-05-07 19:32 | 32.14518 | -85.85666 | 37967 ft | 344 kts | 273° |
| 2026-05-07 19:32 | 32.15445 | -85.91201 | 37971 ft | 344 kts | 273° |
| 2026-05-07 19:33 | 32.16367 | -85.96729 | 37969 ft | 343 kts | 273° |
| 2026-05-07 19:33 | 32.17284 | -86.02236 | 37965 ft | 343 kts | 273° |
| 2026-05-07 19:34 | 32.18046 | -86.06826 | 37991 ft | 342 kts | 272° |
| 2026-05-07 19:34 | 32.18960 | -86.12346 | 37981 ft | 342 kts | 272° |
| 2026-05-07 19:35 | 32.20018 | -86.18750 | 37983 ft | 342 kts | 272° |
| 2026-05-07 19:35 | 32.20778 | -86.23367 | 37993 ft | 341 kts | 272° |
| 2026-05-07 19:36 | 32.21680 | -86.28864 | 37996 ft | 341 kts | 272° |
| 2026-05-07 19:36 | 32.22370 | -86.34330 | 38008 ft | 337 kts | 268° |
| 2026-05-07 19:37 | 32.22757 | -86.39858 | 37996 ft | 338 kts | 268° |
| 2026-05-07 19:37 | 32.23161 | -86.45390 | 37997 ft | 337 kts | 268° |
| 2026-05-07 19:38 | 32.23553 | -86.50911 | 37992 ft | 337 kts | 268° |
| 2026-05-07 19:38 | 32.23946 | -86.56421 | 37990 ft | 337 kts | 268° |
| 2026-05-07 19:39 | 32.24332 | -86.61908 | 37992 ft | 337 kts | 268° |
| 2026-05-07 19:39 | 32.24719 | -86.67425 | 37989 ft | 336 kts | 268° |
| 2026-05-07 19:40 | 32.25103 | -86.72930 | 37993 ft | 336 kts | 268° |
| 2026-05-07 19:40 | 32.25484 | -86.78432 | 37997 ft | 336 kts | 268° |
| 2026-05-07 19:41 | 32.25863 | -86.83941 | 37999 ft | 336 kts | 268° |
| 2026-05-07 19:41 | 32.26239 | -86.89441 | 38009 ft | 336 kts | 268° |
| 2026-05-07 19:42 | 32.26611 | -86.94902 | 38010 ft | 335 kts | 268° |
| 2026-05-07 19:42 | 32.26982 | -87.00397 | 38009 ft | 335 kts | 268° |
| 2026-05-07 19:43 | 32.27350 | -87.05892 | 38008 ft | 335 kts | 268° |
| 2026-05-07 19:43 | 32.27717 | -87.11387 | 38007 ft | 335 kts | 268° |
| 2026-05-07 19:44 | 32.28080 | -87.16873 | 38006 ft | 335 kts | 268° |
| 2026-05-07 19:44 | 32.28440 | -87.22362 | 38008 ft | 334 kts | 268° |
| 2026-05-07 19:45 | 32.28798 | -87.27836 | 38006 ft | 334 kts | 268° |
| 2026-05-07 19:45 | 32.29153 | -87.33317 | 38014 ft | 334 kts | 268° |
| 2026-05-07 19:46 | 32.29447 | -87.37863 | 38018 ft | 334 kts | 268° |